Time;durP1;ratioP1;P1;durP2;ratioP2;P2;SDS_P1;SDS_P2;PMS_P1;PMS_P2;Temp;Humidity;BMP_temperature;BMP_pressure;BME280_temperature;BME280_humidity;BME280_pressure;Samples;Min_cycle;Max_cycle;Signal;HPM_P1;HPM_P2
2023/06/01 00:02:21;;;;;;;21.08;12.30;;;18.80;99.90;;;;;;5080920;28;20039;-79
2023/06/01 00:05:25;;;;;;;23.52;11.95;;;18.70;99.90;;;;;;5093292;28;20047;-79
2023/06/01 00:08:29;;;;;;;20.67;12.23;;;18.70;99.90;;;;;;5092749;28;20067;-79
2023/06/01 00:11:34;;;;;;;18.98;12.07;;;18.70;99.90;;;;;;5093353;28;20043;-80
2023/06/01 00:14:37;;;;;;;23.30;11.82;;;18.70;99.90;;;;;;5092957;28;20043;-80
2023/06/01 00:17:41;;;;;;;20.90;12.50;;;18.80;99.90;;;;;;5092818;28;20051;-80
2023/06/01 00:20:46;;;;;;;20.02;11.35;;;18.90;99.90;;;;;;5080759;28;20043;-80
2023/06/01 00:23:50;;;;;;;18.50;11.10;;;18.90;99.90;;;;;;5080327;28;20062;-79
2023/06/01 00:26:54;;;;;;;19.17;11.20;;;18.90;99.90;;;;;;5092965;28;20066;-79
2023/06/01 00:29:58;;;;;;;20.60;11.43;;;18.80;99.90;;;;;;5092757;28;20047;-80
2023/06/01 00:33:02;;;;;;;18.92;11.60;;;18.70;99.90;;;;;;5092881;28;20039;-80
2023/06/01 00:36:06;;;;;;;22.42;11.38;;;18.50;99.90;;;;;;5092518;28;20420;-80
2023/06/01 00:39:10;;;;;;;21.27;11.13;;;18.40;99.90;;;;;;5092569;28;20047;-80
2023/06/01 00:42:15;;;;;;;25.90;11.73;;;18.40;99.90;;;;;;5080222;28;20522;-80
2023/06/01 00:45:18;;;;;;;26.27;11.45;;;18.50;99.90;;;;;;5092508;28;20047;-80
2023/06/01 00:48:23;;;;;;;18.08;11.52;;;18.50;99.90;;;;;;5079910;28;20433;-80
2023/06/01 00:51:27;;;;;;;19.65;11.10;;;18.50;99.90;;;;;;5092640;28;20058;-80
2023/06/01 00:54:31;;;;;;;13.88;10.93;;;18.50;99.90;;;;;;5079519;28;20385;-80
2023/06/01 00:57:35;;;;;;;18.80;11.13;;;18.40;99.90;;;;;;5079629;28;20070;-80
2023/06/01 01:00:43;;;;;;;16.63;11.30;;;18.40;99.90;;;;;;5092800;28;20047;-80
2023/06/01 01:03:49;;;;;;;21.63;11.02;;;18.50;99.90;;;;;;5092246;28;20395;-80
2023/06/01 01:07:06;;;;;;;16.17;11.40;;;18.60;99.90;;;;;;5092052;28;20051;-79
2023/06/01 01:10:26;;;;;;;20.10;11.55;;;18.60;99.90;;;;;;5090886;28;20047;-80
2023/06/01 01:14:05;;;;;;;18.15;11.43;;;18.70;99.90;;;;;;5068041;28;20043;-79
2023/06/01 01:17:45;;;;;;;16.60;10.95;;;18.60;99.90;;;;;;5079719;28;20544;-79
2023/06/01 01:21:00;;;;;;;16.80;10.95;;;18.50;99.90;;;;;;5079348;28;20051;-80
2023/06/01 01:24:13;;;;;;;17.88;10.65;;;18.40;99.90;;;;;;5091760;28;20063;-80
2023/06/01 01:27:24;;;;;;;14.65;10.30;;;18.40;99.90;;;;;;5091721;28;20059;-80
2023/06/01 01:30:29;;;;;;;17.15;10.25;;;18.40;99.90;;;;;;5079233;28;20047;-79
2023/06/01 01:33:35;;;;;;;17.77;9.90;;;18.40;99.90;;;;;;5079290;28;20226;-79
2023/06/01 01:36:41;;;;;;;18.63;10.60;;;18.40;99.90;;;;;;5091808;28;20043;-79
2023/06/01 01:39:45;;;;;;;20.13;10.32;;;18.40;99.90;;;;;;5078613;28;20058;-79
2023/06/01 01:42:51;;;;;;;16.52;10.10;;;18.30;99.90;;;;;;5078799;28;20043;-80
2023/06/01 01:46:06;;;;;;;19.02;10.18;;;18.20;99.90;;;;;;5091539;28;20050;-79
2023/06/01 01:49:30;;;;;;;19.75;10.55;;;18.30;99.90;;;;;;5091220;28;20059;-80
2023/06/01 01:52:41;;;;;;;16.58;10.38;;;18.30;99.90;;;;;;5091427;28;20062;-79
2023/06/01 01:55:50;;;;;;;16.23;10.25;;;18.20;99.90;;;;;;5091431;28;20066;-80
2023/06/01 01:58:55;;;;;;;17.55;10.65;;;18.20;99.90;;;;;;5089979;28;20411;-79
2023/06/01 02:01:59;;;;;;;15.98;9.98;;;18.20;99.90;;;;;;5078887;28;20499;-78
2023/06/01 02:05:03;;;;;;;18.75;10.60;;;18.30;99.90;;;;;;5090993;28;20404;-78
2023/06/01 02:08:07;;;;;;;17.23;10.85;;;18.40;99.90;;;;;;5078106;28;20055;-77
2023/06/01 02:11:12;;;;;;;21.20;10.02;;;18.50;99.90;;;;;;5078747;28;20043;-79
2023/06/01 02:14:17;;;;;;;19.58;10.68;;;18.60;99.90;;;;;;5078719;28;20043;-78
2023/06/01 02:17:21;;;;;;;18.77;10.73;;;18.60;99.90;;;;;;5078573;28;20035;-78
2023/06/01 02:20:25;;;;;;;19.30;11.00;;;18.60;99.90;;;;;;5078313;28;20051;-78
2023/06/01 02:23:29;;;;;;;19.08;10.30;;;18.60;99.90;;;;;;5084399;28;20035;-80
2023/06/01 02:26:33;;;;;;;18.42;10.23;;;18.60;99.90;;;;;;5084875;28;20510;-79
2023/06/01 02:29:37;;;;;;;18.40;10.77;;;18.60;99.90;;;;;;5097433;28;20043;-79
2023/06/01 02:32:45;;;;;;;19.08;10.80;;;18.60;99.90;;;;;;5073614;28;20040;-79
2023/06/01 02:35:51;;;;;;;15.02;10.48;;;18.60;99.90;;;;;;5084893;28;20047;-80
2023/06/01 02:38:55;;;;;;;15.95;10.80;;;18.70;99.90;;;;;;5084649;28;20074;-80
2023/06/01 02:42:00;;;;;;;25.13;11.30;;;18.60;99.90;;;;;;5084937;28;20035;-80
2023/06/01 02:45:06;;;;;;;18.35;10.88;;;18.50;99.90;;;;;;5073645;28;20048;-80
2023/06/01 02:48:10;;;;;;;16.15;10.35;;;18.50;99.90;;;;;;5084727;28;20039;-80
2023/06/01 02:51:14;;;;;;;14.45;10.82;;;18.50;99.90;;;;;;5073324;28;20046;-80
2023/06/01 02:54:21;;;;;;;19.42;10.55;;;18.40;99.90;;;;;;5074044;28;20043;-79
2023/06/01 02:57:25;;;;;;;20.55;11.65;;;18.40;99.90;;;;;;5073234;28;20552;-80
2023/06/01 03:00:34;;;;;;;17.65;11.32;;;18.30;99.90;;;;;;5085000;28;20051;-80
2023/06/01 03:03:38;;;;;;;17.98;11.20;;;18.30;99.90;;;;;;5073125;28;20093;-79
2023/06/01 03:06:43;;;;;;;18.52;12.07;;;18.20;99.90;;;;;;5084685;28;20071;-79
2023/06/01 03:09:52;;;;;;;15.50;10.65;;;18.20;99.90;;;;;;5096996;28;20073;-80
2023/06/01 03:13:22;;;;;;;18.98;11.13;;;18.20;99.90;;;;;;5097146;28;20046;-80
2023/06/01 03:16:26;;;;;;;18.55;11.50;;;18.10;99.90;;;;;;5084812;28;20043;-80
2023/06/01 03:19:43;;;;;;;19.42;12.23;;;18.10;99.90;;;;;;5074898;28;20047;-80
2023/06/01 03:22:54;;;;;;;;;;;18.10;99.90;;;;;;5084979;28;20047;-80
2023/06/01 03:26:00;;;;;;;27.42;13.68;;;18.10;99.90;;;;;;5084832;28;19908;-79
2023/06/01 03:29:04;;;;;;;19.55;14.18;;;18.20;99.90;;;;;;5072850;28;20047;-79
2023/06/01 03:32:10;;;;;;;25.73;16.70;;;18.10;99.90;;;;;;5084484;28;20399;-80
2023/06/01 03:35:16;;;;;;;27.48;16.52;;;18.10;99.90;;;;;;5068896;28;20058;-80
2023/06/01 03:38:20;;;;;;;30.58;14.75;;;18.00;99.90;;;;;;5080999;28;20051;-80
2023/06/01 03:41:25;;;;;;;22.38;14.80;;;18.10;99.90;;;;;;5081469;28;20039;-80
2023/06/01 03:44:28;;;;;;;20.45;14.40;;;18.20;99.90;;;;;;5081325;28;20063;-80
2023/06/01 03:47:33;;;;;;;25.40;13.27;;;18.20;99.90;;;;;;5081179;28;20067;-80
2023/06/01 03:50:37;;;;;;;21.92;13.55;;;18.10;99.90;;;;;;5081033;28;20059;-81
2023/06/01 03:53:43;;;;;;;21.67;14.43;;;17.90;99.90;;;;;;5080761;28;20047;-79
2023/06/01 03:56:47;;;;;;;25.83;14.60;;;17.80;99.90;;;;;;5069450;28;20051;-80
2023/06/01 03:59:51;;;;;;;23.95;13.77;;;17.80;99.90;;;;;;5081040;28;20055;-79
2023/06/01 04:02:58;;;;;;;19.50;14.27;;;17.90;99.90;;;;;;5080897;28;20039;-80
2023/06/01 04:06:04;;;;;;;19.30;13.48;;;18.10;99.90;;;;;;5080877;28;20364;-80
2023/06/01 04:09:09;;;;;;;18.98;13.18;;;18.20;99.90;;;;;;5069223;28;20067;-79
2023/06/01 04:12:14;;;;;;;25.95;13.82;;;18.30;99.90;;;;;;5092364;28;20078;-79
2023/06/01 04:15:20;;;;;;;18.80;11.60;;;18.40;99.90;;;;;;5080626;28;20050;-79
2023/06/01 04:18:23;;;;;;;16.23;11.80;;;18.40;99.90;;;;;;5080331;28;20059;-79
2023/06/01 04:21:33;;;;;;;19.02;11.10;;;18.40;99.90;;;;;;5069613;28;20035;-79
2023/06/01 04:24:37;;;;;;;23.00;11.18;;;17.50;99.90;;;;;;5080140;28;20043;-78
2023/06/01 04:27:44;;;;;;;16.40;10.27;;;18.50;99.90;;;;;;5080728;28;20056;-79
2023/06/01 04:30:51;;;;;;;14.63;10.73;;;18.50;99.90;;;;;;5092841;28;20043;-79
2023/06/01 04:33:56;;;;;;;19.08;10.93;;;18.60;99.90;;;;;;5080276;28;20501;-79
2023/06/01 04:37:04;;;;;;;17.75;10.82;;;18.70;99.90;;;;;;5091598;28;20090;-79
2023/06/01 04:40:10;;;;;;;26.08;10.63;;;19.00;99.90;;;;;;5080226;28;20059;-79
2023/06/01 04:43:18;;;;;;;19.00;11.60;;;19.20;99.90;;;;;;5068888;28;20055;-81
2023/06/01 04:46:26;;;;;;;19.48;10.32;;;19.40;99.90;;;;;;5080059;28;20043;-80
2023/06/01 04:49:32;;;;;;;23.67;10.63;;;19.70;99.50;;;;;;5079815;28;20063;-80
2023/06/01 04:52:41;;;;;;;20.83;10.80;;;19.90;99.10;;;;;;5080075;28;20062;-79
2023/06/01 04:55:45;;;;;;;17.30;10.75;;;20.00;99.10;;;;;;5091399;28;20046;-80
2023/06/01 04:58:49;;;;;;;18.92;11.55;;;20.10;98.80;;;;;;5091982;28;20059;-78
2023/06/01 05:01:53;;;;;;;14.65;10.65;;;20.20;98.70;;;;;;5092053;28;20050;-80
2023/06/01 05:04:56;;;;;;;26.75;12.73;;;20.30;98.40;;;;;;5079658;28;20054;-81
2023/06/01 05:08:01;;;;;;;20.27;11.15;;;20.40;98.50;;;;;;5055962;28;20087;-80
2023/06/01 05:11:06;;;;;;;18.08;9.57;;;20.60;98.30;;;;;;5051045;28;20048;-80
2023/06/01 05:14:10;;;;;;;16.98;10.55;;;20.90;97.80;;;;;;5051332;28;20508;-81
2023/06/01 05:17:14;;;;;;;17.10;11.05;;;21.10;97.50;;;;;;5039300;28;20083;-79
2023/06/01 05:20:18;;;;;;;20.13;10.63;;;21.20;96.90;;;;;;5050629;28;20056;-81
2023/06/01 05:23:29;;;;;;;18.30;10.60;;;21.20;97.50;;;;;;5050942;28;20234;-81
2023/06/01 05:26:32;;;;;;;20.77;10.95;;;21.50;97.30;;;;;;5050893;28;20040;-84
2023/06/01 05:29:36;;;;;;;15.75;10.45;;;21.80;97.00;;;;;;5050214;28;20527;-65
2023/06/01 05:32:41;;;;;;;20.60;11.63;;;22.00;96.40;;;;;;5051286;28;20044;-65
2023/06/01 05:35:49;;;;;;;20.33;11.80;;;22.10;96.30;;;;;;5052614;28;20496;-65
2023/06/01 05:38:58;;;;;;;15.95;10.65;;;22.40;96.10;;;;;;5050768;28;20502;-66
2023/06/01 05:42:02;;;;;;;24.33;11.45;;;22.50;95.70;;;;;;5050694;28;20071;-66
2023/06/01 05:45:13;;;;;;;24.45;11.63;;;22.60;95.60;;;;;;5040657;28;20283;-66
2023/06/01 05:48:18;;;;;;;20.80;10.20;;;22.80;95.40;;;;;;5051605;28;20385;-66
2023/06/01 05:51:27;;;;;;;15.30;10.27;;;23.00;95.20;;;;;;5050370;28;20048;-67
2023/06/01 05:54:33;;;;;;;14.45;10.52;;;23.10;95.30;;;;;;5050499;28;20048;-65
2023/06/01 05:57:38;;;;;;;20.60;9.60;;;23.20;94.90;;;;;;5049636;28;20074;-66
2023/06/01 06:00:42;;;;;;;14.35;9.35;;;23.20;94.80;;;;;;5050249;28;20509;-67
2023/06/01 06:03:46;;;;;;;18.83;9.50;;;23.50;94.90;;;;;;5051154;28;20040;-66
2023/06/01 06:06:50;;;;;;;26.23;9.10;;;23.80;94.60;;;;;;5060628;28;20055;-65
2023/06/01 06:09:54;;;;;;;11.48;8.70;;;24.10;94.10;;;;;;5091052;28;20043;-66
2023/06/01 06:12:58;;;;;;;16.17;8.63;;;24.30;93.70;;;;;;5090932;28;20047;-69
2023/06/01 06:16:02;;;;;;;14.98;8.75;;;24.40;93.60;;;;;;5091127;28;20047;-66
2023/06/01 06:19:07;;;;;;;12.93;9.05;;;24.40;93.60;;;;;;5090301;28;20066;-66
2023/06/01 06:22:11;;;;;;;12.02;8.35;;;24.40;93.20;;;;;;5078422;28;20039;-66
2023/06/01 06:25:15;;;;;;;14.05;9.23;;;24.50;93.30;;;;;;5090987;28;20052;-65
2023/06/01 06:28:19;;;;;;;9.20;7.30;;;24.70;93.10;;;;;;5090559;28;20525;-64
2023/06/01 06:31:23;;;;;;;13.75;8.45;;;24.70;92.30;;;;;;5090656;28;20054;-65
2023/06/01 06:34:33;;;;;;;12.82;7.45;;;24.60;92.50;;;;;;5090650;28;20044;-66
2023/06/01 06:37:37;;;;;;;8.50;7.60;;;24.70;92.00;;;;;;5091036;28;20039;-65
2023/06/01 06:40:41;;;;;;;9.38;6.47;;;24.80;92.10;;;;;;5090774;28;20051;-65
2023/06/01 06:43:45;;;;;;;8.70;6.45;;;25.10;91.70;;;;;;5078266;28;20043;-64
2023/06/01 06:46:49;;;;;;;17.27;6.93;;;25.30;91.30;;;;;;5090464;28;20055;-65
2023/06/01 06:49:52;;;;;;;10.90;6.88;;;25.60;91.00;;;;;;5090395;28;20058;-64
2023/06/01 06:52:57;;;;;;;7.80;5.90;;;25.90;91.10;;;;;;5090444;28;20051;-64
2023/06/01 06:56:01;;;;;;;8.52;5.28;;;26.10;90.60;;;;;;5090812;28;20058;-65
2023/06/01 06:59:04;;;;;;;10.50;6.20;;;26.30;89.60;;;;;;5090200;28;20075;-65
2023/06/01 07:02:09;;;;;;;11.40;6.15;;;26.40;89.50;;;;;;5090503;28;20411;-64
2023/06/01 07:05:12;;;;;;;10.57;6.47;;;26.40;89.20;;;;;;5077997;28;20059;-67
2023/06/01 07:08:17;;;;;;;12.38;5.90;;;26.70;89.00;;;;;;5077459;28;20083;-66
2023/06/01 07:11:22;;;;;;;9.95;6.20;;;26.90;90.00;;;;;;5094352;28;20118;-67
2023/06/01 07:14:26;;;;;;;10.43;6.30;;;27.10;88.60;;;;;;5094239;28;20633;-68
2023/06/01 07:17:30;;;;;;;10.50;5.90;;;27.20;89.50;;;;;;5078120;28;20063;-65
2023/06/01 07:20:34;;;;;;;12.10;6.15;;;27.20;87.90;;;;;;5093198;28;20047;-67
2023/06/01 07:23:41;;;;;;;10.38;6.25;;;27.30;87.90;;;;;;5094092;28;20043;-67
2023/06/01 07:26:45;;;;;;;12.98;5.60;;;27.40;88.60;;;;;;5094195;28;20063;-66
2023/06/01 07:29:54;;;;;;;12.35;5.50;;;27.50;87.40;;;;;;5093468;28;20047;-66
2023/06/01 07:32:58;;;;;;;14.15;6.47;;;27.70;86.60;;;;;;5093552;28;20047;-65
2023/06/01 07:36:03;;;;;;;7.78;5.20;;;27.90;86.40;;;;;;5093778;28;20043;-64
2023/06/01 07:39:08;;;;;;;9.48;5.63;;;28.00;86.40;;;;;;5093450;28;20051;-65
2023/06/01 07:42:12;;;;;;;8.63;6.50;;;28.00;84.50;;;;;;5093900;28;20383;-64
2023/06/01 07:45:17;;;;;;;10.02;7.05;;;28.00;84.30;;;;;;5093372;28;20214;-65
2023/06/01 07:48:21;;;;;;;8.18;5.65;;;28.20;83.80;;;;;;5093760;28;20063;-68
2023/06/01 07:51:25;;;;;;;9.82;5.70;;;28.40;80.60;;;;;;5093504;28;20047;-65
2023/06/01 07:54:31;;;;;;;11.80;7.50;;;28.40;81.90;;;;;;5093488;28;20399;-65
2023/06/01 07:57:34;;;;;;;11.93;6.05;;;28.60;79.50;;;;;;5093159;28;20194;-65
2023/06/01 08:00:39;;;;;;;14.88;6.35;;;28.70;79.80;;;;;;5093302;28;20055;-64
2023/06/01 08:03:43;;;;;;;7.88;5.45;;;28.90;80.60;;;;;;5093094;28;20039;-64
2023/06/01 08:06:52;;;;;;;9.75;5.18;;;29.00;78.50;;;;;;5093055;28;20051;-65
2023/06/01 08:09:58;;;;;;;14.55;6.40;;;29.00;78.30;;;;;;5093008;28;20042;-64
2023/06/01 08:13:04;;;;;;;11.48;5.38;;;29.10;78.60;;;;;;5092771;28;20051;-63
2023/06/01 08:16:08;;;;;;;7.32;5.70;;;29.20;78.20;;;;;;5093187;28;20054;-65
2023/06/01 08:19:12;;;;;;;8.60;5.30;;;29.30;77.90;;;;;;5092877;28;20055;-63
2023/06/01 08:22:20;;;;;;;7.68;5.03;;;29.30;76.80;;;;;;5092803;28;20059;-64
2023/06/01 08:25:24;;;;;;;8.95;5.07;;;29.30;76.50;;;;;;5092981;28;20218;-63
2023/06/01 08:28:28;;;;;;;7.97;4.28;;;29.30;77.60;;;;;;5092629;28;20047;-64
2023/06/01 08:31:32;;;;;;;6.90;4.85;;;29.40;77.10;;;;;;5092546;28;20047;-64
2023/06/01 08:34:36;;;;;;;8.82;5.05;;;29.50;76.70;;;;;;5092699;28;20051;-64
2023/06/01 08:37:40;;;;;;;8.20;4.60;;;29.60;75.20;;;;;;5079686;28;20046;-65
2023/06/01 08:40:44;;;;;;;8.38;4.75;;;29.60;74.10;;;;;;5080228;28;20051;-66
2023/06/01 08:43:55;;;;;;;5.32;4.40;;;29.60;74.20;;;;;;5092770;28;20415;-63
2023/06/01 08:47:00;;;;;;;7.03;4.15;;;29.40;73.20;;;;;;5079957;28;20047;-65
2023/06/01 08:50:05;;;;;;;7.10;4.78;;;29.40;74.70;;;;;;5092431;28;20055;-66
2023/06/01 08:53:10;;;;;;;6.82;4.60;;;29.40;75.20;;;;;;5092023;28;20035;-64
2023/06/01 08:56:14;;;;;;;7.68;4.68;;;29.40;73.20;;;;;;5092163;28;20051;-65
2023/06/01 08:59:18;;;;;;;12.85;4.80;;;29.50;75.10;;;;;;5092015;28;20403;-64
2023/06/01 09:02:27;;;;;;;8.23;4.70;;;29.60;74.50;;;;;;5092025;28;20043;-64
2023/06/01 09:05:31;;;;;;;7.82;4.13;;;29.70;73.90;;;;;;5092023;28;20392;-64
2023/06/01 09:08:35;;;;;;;6.57;4.38;;;29.70;72.90;;;;;;5091582;28;20218;-64
2023/06/01 09:11:39;;;;;;;20.02;5.18;;;29.60;72.30;;;;;;5092188;28;20043;-63
2023/06/01 09:14:43;;;;;;;5.43;4.15;;;29.60;72.90;;;;;;5091582;28;20043;-63
2023/06/01 09:17:50;;;;;;;7.50;4.32;;;29.50;73.10;;;;;;5091434;28;20483;-68
2023/06/01 09:21:09;;;;;;;9.95;4.85;;;29.40;72.40;;;;;;5091784;28;20122;-64
2023/06/01 09:24:21;;;;;;;7.07;4.70;;;29.30;73.60;;;;;;5090775;28;20051;-63
2023/06/01 09:27:26;;;;;;;8.10;4.55;;;29.30;72.70;;;;;;5091853;28;20051;-64
2023/06/01 09:30:41;;;;;;;6.68;4.63;;;29.20;71.90;;;;;;5090850;28;20139;-63
2023/06/01 09:34:00;;;;;;;8.57;4.93;;;29.10;73.70;;;;;;5089971;28;20047;-62
2023/06/01 09:37:07;;;;;;;6.40;4.50;;;29.10;74.20;;;;;;5091688;28;20150;-64
2023/06/01 09:40:19;;;;;;;5.45;4.40;;;29.20;73.90;;;;;;5091125;28;20109;-62
2023/06/01 09:43:22;;;;;;;7.00;4.60;;;29.20;72.90;;;;;;5091578;28;20050;-64
2023/06/01 09:46:27;;;;;;;8.02;5.03;;;29.30;73.00;;;;;;5091877;28;20059;-64
2023/06/01 09:49:37;;;;;;;6.43;4.80;;;29.30;72.50;;;;;;5091300;28;20321;-65
2023/06/01 09:52:41;;;;;;;6.20;4.22;;;29.30;72.50;;;;;;5091391;28;20518;-64
2023/06/01 09:56:01;;;;;;;7.03;4.70;;;29.30;72.90;;;;;;5091432;28;20047;-63
2023/06/01 09:59:05;;;;;;;7.97;4.53;;;29.50;72.30;;;;;;5090869;28;20067;-62
2023/06/01 10:02:18;;;;;;;8.50;5.10;;;29.50;72.00;;;;;;5091288;28;20495;-63
2023/06/01 10:05:22;;;;;;;10.23;5.15;;;29.60;72.60;;;;;;5091208;28;20206;-63
2023/06/01 10:08:27;;;;;;;9.45;4.57;;;29.60;73.40;;;;;;5090616;28;20404;-62
2023/06/01 10:11:32;;;;;;;10.48;5.13;;;29.60;73.10;;;;;;5091204;28;20055;-63
2023/06/01 10:14:38;;;;;;;6.13;5.05;;;29.70;73.60;;;;;;5078833;28;20395;-63
2023/06/01 10:17:43;;;;;;;8.57;6.22;;;29.70;72.90;;;;;;5091077;28;20055;-67
2023/06/01 10:20:48;;;;;;;5.18;4.47;;;29.70;73.10;;;;;;5090808;28;20059;-62
2023/06/01 10:23:52;;;;;;;5.10;4.60;;;29.70;72.90;;;;;;5091197;28;20047;-60
2023/06/01 10:27:05;;;;;;;6.60;4.65;;;29.80;73.70;;;;;;5091178;28;20408;-62
2023/06/01 10:30:10;;;;;;;7.40;5.40;;;29.90;72.50;;;;;;5091176;28;20058;-61
2023/06/01 10:33:14;;;;;;;8.13;5.40;;;29.80;71.00;;;;;;5078464;28;20059;-61
2023/06/01 10:36:18;;;;;;;9.05;5.47;;;29.80;72.70;;;;;;5090943;28;20043;-62
2023/06/01 10:39:27;;;;;;;5.85;4.75;;;29.80;71.30;;;;;;5090387;28;20059;-61
2023/06/01 10:42:36;;;;;;;5.40;4.65;;;29.60;70.80;;;;;;5090569;28;20399;-61
2023/06/01 10:45:41;;;;;;;7.68;5.05;;;29.60;72.10;;;;;;5095120;28;20055;-61
2023/06/01 10:48:55;;;;;;;19.35;5.68;;;29.60;73.80;;;;;;5094731;28;20047;-61
2023/06/01 10:52:27;;;;;;;9.50;5.80;;;29.60;73.50;;;;;;5094966;28;20047;-65
2023/06/01 10:55:32;;;;;;;6.60;4.78;;;29.60;72.80;;;;;;5082378;28;20039;-61
2023/06/01 10:58:36;;;;;;;9.32;6.10;;;29.40;74.50;;;;;;5094120;28;20403;-62
2023/06/01 11:01:42;;;;;;;8.95;5.97;;;29.20;73.50;;;;;;5094328;28;20059;-62
2023/06/01 11:04:46;;;;;;;9.23;6.57;;;28.80;73.30;;;;;;5093827;28;20051;-63
2023/06/01 11:07:51;;;;;;;5.90;4.55;;;28.60;74.70;;;;;;5092317;28;20522;-61
2023/06/01 11:10:59;;;;;;;8.10;6.15;;;28.50;75.20;;;;;;5079719;28;20530;-61
2023/06/01 11:14:09;;;;;;;7.05;5.35;;;28.40;75.20;;;;;;5094315;28;20047;-62
2023/06/01 11:17:28;;;;;;;9.52;5.70;;;28.20;75.60;;;;;;5094106;28;20047;-62
2023/06/01 11:20:39;;;;;;;6.88;5.40;;;28.20;75.40;;;;;;5094085;28;20141;-61
2023/06/01 11:23:45;;;;;;;7.95;4.55;;;28.20;76.20;;;;;;5094349;28;20039;-60
2023/06/01 11:26:50;;;;;;;7.78;4.82;;;28.20;75.90;;;;;;5094332;28;20051;-60
2023/06/01 11:29:56;;;;;;;5.40;4.72;;;28.20;75.60;;;;;;5094270;28;20480;-61
2023/06/01 11:33:01;;;;;;;6.55;5.10;;;28.10;75.20;;;;;;5094174;28;20136;-60
2023/06/01 11:36:07;;;;;;;17.13;5.93;;;28.10;75.20;;;;;;5093811;28;20051;-60
2023/06/01 11:39:25;;;;;;;6.97;5.20;;;28.10;74.50;;;;;;5069920;28;20051;-60
2023/06/01 11:42:35;;;;;;;10.93;6.07;;;28.10;75.50;;;;;;5093748;28;20043;-60
2023/06/01 11:45:40;;;;;;;7.63;5.95;;;28.10;75.70;;;;;;5093954;28;20388;-61
2023/06/01 11:49:01;;;;;;;9.10;5.65;;;28.10;76.70;;;;;;5093422;28;20050;-61
2023/06/01 11:52:08;;;;;;;11.05;6.05;;;28.10;77.10;;;;;;5093652;28;20039;-61
2023/06/01 11:55:13;;;;;;;6.88;5.85;;;28.10;77.70;;;;;;5092696;28;20297;-61
2023/06/01 11:58:24;;;;;;;8.07;5.40;;;28.00;77.50;;;;;;5093665;28;20047;-61
2023/06/01 12:01:28;;;;;;;8.82;6.63;;;28.00;77.40;;;;;;5093787;28;20122;-60
2023/06/01 12:04:33;;;;;;;10.40;5.80;;;27.80;77.20;;;;;;5093751;28;20498;-64
2023/06/01 12:07:47;;;;;;;9.43;5.25;;;27.70;78.60;;;;;;5093066;28;20298;-60
2023/06/01 12:10:52;;;;;;;12.90;6.18;;;27.40;81.40;;;;;;5093461;28;20059;-61
2023/06/01 12:13:58;;;;;;;7.85;5.75;;;27.10;82.30;;;;;;5093398;28;20051;-62
2023/06/01 12:17:04;;;;;;;10.23;5.80;;;26.90;83.30;;;;;;5092947;28;20043;-60
2023/06/01 12:20:09;;;;;;;20.08;7.93;;;26.70;83.40;;;;;;5092828;28;20055;-61
2023/06/01 12:23:15;;;;;;;14.18;7.50;;;26.20;90.30;;;;;;5092256;28;20051;-59
2023/06/01 12:26:20;;;;;;;19.13;8.38;;;25.50;91.80;;;;;;5093322;28;20059;-59
2023/06/01 12:29:38;;;;;;;12.30;8.10;;;24.80;93.20;;;;;;5093024;28;20054;-60
2023/06/01 12:32:42;;;;;;;17.27;8.63;;;24.50;93.80;;;;;;5093182;28;20039;-60
2023/06/01 12:35:49;;;;;;;17.73;8.48;;;24.10;94.00;;;;;;5092815;28;20043;-60
2023/06/01 12:38:53;;;;;;;18.92;9.13;;;23.80;93.90;;;;;;5092489;28;20131;-65
2023/06/01 12:41:57;;;;;;;15.50;8.23;;;23.80;95.20;;;;;;5093121;28;20079;-64
2023/06/01 12:45:02;;;;;;;11.88;6.20;;;23.90;95.10;;;;;;5092813;28;20047;-66
2023/06/01 12:48:06;;;;;;;12.32;7.45;;;24.00;94.80;;;;;;5091320;28;20055;-66
2023/06/01 12:51:10;;;;;;;11.00;6.15;;;24.10;94.90;;;;;;5092125;28;20051;-66
2023/06/01 12:54:14;;;;;;;8.05;5.47;;;24.00;94.60;;;;;;5092338;28;20138;-65
2023/06/01 12:57:18;;;;;;;11.13;7.65;;;23.90;95.60;;;;;;5092251;28;20039;-64
2023/06/01 13:00:22;;;;;;;13.82;8.73;;;24.00;96.70;;;;;;5092250;28;20054;-64
2023/06/01 13:03:26;;;;;;;13.23;8.95;;;24.20;96.70;;;;;;5092200;28;20047;-63
2023/06/01 13:06:30;;;;;;;18.55;11.30;;;24.30;96.70;;;;;;5091687;28;20051;-64
2023/06/01 13:09:35;;;;;;;15.93;9.57;;;24.00;96.80;;;;;;5090998;28;20058;-63
2023/06/01 13:12:40;;;;;;;12.20;8.75;;;23.70;96.70;;;;;;5079702;28;20448;-63
2023/06/01 13:15:44;;;;;;;14.70;9.38;;;23.70;96.80;;;;;;5092059;28;20043;-64
2023/06/01 13:18:50;;;;;;;13.07;10.30;;;23.70;96.80;;;;;;5091680;28;20395;-64
2023/06/01 13:21:56;;;;;;;13.02;10.00;;;23.60;97.00;;;;;;5092093;28;20396;-63
2023/06/01 13:25:00;;;;;;;12.20;9.45;;;23.50;96.70;;;;;;5092258;28;20048;-64
2023/06/01 13:28:04;;;;;;;18.67;9.02;;;23.50;97.60;;;;;;5091634;28;20058;-63
2023/06/01 13:31:09;;;;;;;17.00;9.18;;;23.50;97.10;;;;;;5091606;28;20051;-63
2023/06/01 13:34:13;;;;;;;12.63;8.60;;;23.60;97.30;;;;;;5091516;28;20042;-63
2023/06/01 13:37:17;;;;;;;15.68;9.55;;;23.60;97.10;;;;;;5091916;28;20043;-64
2023/06/01 13:40:22;;;;;;;12.23;8.70;;;23.70;97.60;;;;;;5091453;28;20059;-63
2023/06/01 13:43:27;;;;;;;13.85;9.10;;;23.70;97.50;;;;;;5091810;28;20384;-63
2023/06/01 13:46:31;;;;;;;11.15;9.25;;;23.70;97.30;;;;;;5091792;28;20043;-64
2023/06/01 13:49:35;;;;;;;11.75;8.93;;;23.80;97.50;;;;;;5091311;28;20051;-64
2023/06/01 13:52:42;;;;;;;11.80;9.07;;;23.90;97.10;;;;;;5091655;28;20043;-64
2023/06/01 13:55:47;;;;;;;11.35;9.18;;;23.90;97.20;;;;;;5091660;28;20078;-64
2023/06/01 13:58:51;;;;;;;12.98;9.25;;;24.00;97.90;;;;;;5091752;28;20376;-62
2023/06/01 14:01:55;;;;;;;13.18;9.82;;;24.00;97.40;;;;;;5091246;28;20146;-63
2023/06/01 14:04:59;;;;;;;18.08;11.13;;;24.00;97.40;;;;;;5090790;28;20387;-65
2023/06/01 14:08:04;;;;;;;13.88;10.52;;;23.80;98.70;;;;;;5090545;28;20054;-63
2023/06/01 14:11:08;;;;;;;13.90;10.18;;;23.80;98.50;;;;;;5090228;28;20039;-62
2023/06/01 14:14:12;;;;;;;14.95;10.40;;;23.80;98.50;;;;;;5090828;28;20074;-62
2023/06/01 14:17:16;;;;;;;13.63;10.25;;;23.80;98.60;;;;;;5090865;28;20063;-63
2023/06/01 14:20:20;;;;;;;17.80;10.90;;;23.90;98.80;;;;;;5091092;28;20411;-63
2023/06/01 14:23:24;;;;;;;16.58;11.68;;;23.90;99.30;;;;;;5091425;28;20042;-64
2023/06/01 14:26:28;;;;;;;18.25;12.05;;;23.90;99.90;;;;;;5090850;28;20062;-63
2023/06/01 14:29:32;;;;;;;15.45;11.32;;;23.90;99.90;;;;;;5090652;28;20396;-62
2023/06/01 14:32:36;;;;;;;20.83;12.85;;;23.80;99.90;;;;;;5089016;28;20518;-63
2023/06/01 14:35:40;;;;;;;19.55;11.73;;;23.80;99.90;;;;;;5089738;28;20043;-63
2023/06/01 14:38:44;;;;;;;20.52;11.80;;;23.80;99.90;;;;;;5088592;28;20395;-64
2023/06/01 14:41:48;;;;;;;24.92;11.63;;;23.70;99.90;;;;;;5089628;28;20126;-63
2023/06/01 14:44:51;;;;;;;17.25;11.48;;;23.70;99.90;;;;;;5090338;28;20309;-63
2023/06/01 14:47:56;;;;;;;21.25;11.35;;;23.70;99.90;;;;;;5090530;28;20070;-63
2023/06/01 14:51:00;;;;;;;21.42;11.82;;;23.80;99.90;;;;;;5088951;28;20070;-64
2023/06/01 14:54:04;;;;;;;27.08;12.18;;;23.80;99.90;;;;;;5090238;28;20047;-63
2023/06/01 14:57:08;;;;;;;22.92;12.10;;;23.90;99.90;;;;;;5090491;28;20051;-63
2023/06/01 15:00:13;;;;;;;15.73;10.57;;;24.00;99.80;;;;;;5089756;28;20055;-64
2023/06/01 15:03:17;;;;;;;16.63;10.32;;;24.00;99.80;;;;;;5090299;28;20051;-62
2023/06/01 15:06:21;;;;;;;22.45;11.52;;;24.00;99.80;;;;;;5090271;28;20047;-63
2023/06/01 15:09:25;;;;;;;17.25;10.85;;;24.10;99.50;;;;;;5090400;28;20071;-63
2023/06/01 15:12:29;;;;;;;19.00;10.82;;;24.10;99.10;;;;;;5090648;28;20391;-62
2023/06/01 15:15:33;;;;;;;15.02;9.88;;;24.10;98.80;;;;;;5090655;28;20067;-62
2023/06/01 15:18:37;;;;;;;17.95;9.88;;;24.10;98.80;;;;;;5090578;28;20039;-63
2023/06/01 15:21:41;;;;;;;15.23;9.18;;;24.10;98.80;;;;;;5090652;28;20059;-62
2023/06/01 15:24:45;;;;;;;16.67;8.60;;;24.10;98.20;;;;;;5090461;28;20035;-62
2023/06/01 15:27:50;;;;;;;21.95;9.70;;;24.20;97.70;;;;;;5077785;28;20047;-62
2023/06/01 15:30:54;;;;;;;18.42;9.65;;;24.20;97.40;;;;;;5092644;28;20039;-63
2023/06/01 15:33:58;;;;;;;17.02;8.73;;;24.20;97.70;;;;;;5069872;28;20043;-63
2023/06/01 15:37:02;;;;;;;18.90;10.00;;;24.20;97.40;;;;;;5093904;28;20491;-63
2023/06/01 15:40:15;;;;;;;15.13;9.63;;;24.20;96.90;;;;;;5094034;28;20051;-62
2023/06/01 15:43:19;;;;;;;26.63;12.82;;;24.00;96.10;;;;;;5093838;28;20118;-62
2023/06/01 15:46:23;;;;;;;25.02;10.60;;;24.00;96.30;;;;;;5093507;28;20047;-64
2023/06/01 15:49:27;;;;;;;18.75;10.23;;;24.00;96.20;;;;;;5093458;28;20039;-63
2023/06/01 15:52:31;;;;;;;21.92;9.32;;;24.10;96.70;;;;;;5093375;28;20383;-62
2023/06/01 15:55:35;;;;;;;13.40;8.73;;;24.10;96.10;;;;;;5092225;28;20408;-62